createdAt,value
2023-02-15T00:02:10.235Z,3.50
2023-02-15T00:04:51.097Z,3.50
2023-02-15T00:07:21.659Z,3.50
2023-02-15T00:09:49.879Z,3.50
2023-02-15T00:12:18.267Z,3.50
2023-02-15T00:14:46.621Z,3.50
2023-02-15T00:17:14.518Z,3.50
2023-02-15T00:19:42.615Z,3.50
2023-02-15T00:22:10.737Z,3.40
2023-02-15T00:24:40.293Z,3.40
2023-02-15T00:27:10.152Z,3.40
2023-02-15T00:29:38.431Z,3.40
2023-02-15T00:32:07.284Z,3.40
2023-02-15T00:34:35.275Z,3.40
2023-02-15T00:37:03.400Z,3.40
2023-02-15T00:39:31.742Z,3.30
2023-02-15T00:42:01.507Z,3.30
2023-02-15T00:44:29.444Z,3.30
2023-02-15T00:46:57.560Z,3.30
2023-02-15T00:49:25.694Z,3.30
2023-02-15T00:51:53.571Z,3.30
2023-02-15T00:54:21.779Z,3.30
2023-02-15T00:56:49.924Z,3.20
2023-02-15T00:59:19.523Z,3.20
2023-02-15T01:01:47.712Z,3.20
2023-02-15T01:04:15.656Z,3.20
2023-02-15T01:06:43.581Z,3.20
2023-02-15T01:09:13.678Z,3.20
2023-02-15T01:11:41.870Z,3.20
2023-02-15T01:14:09.734Z,3.20
2023-02-15T01:16:38.968Z,3.10
2023-02-15T01:19:07.192Z,3.10
2023-02-15T01:21:35.716Z,3.10
2023-02-15T01:24:03.650Z,3.20
2023-02-15T01:26:31.949Z,3.10
2023-02-15T01:29:00.098Z,3.10
2023-02-15T01:31:28.304Z,3.10
2023-02-15T01:33:57.711Z,3.10
2023-02-15T01:36:25.576Z,3.10
2023-02-15T01:38:53.574Z,3.10
2023-02-15T01:41:33.789Z,3.10
2023-02-15T01:44:03.707Z,3.00
2023-02-15T01:46:37.538Z,3.00
2023-02-15T01:49:14.086Z,3.00
2023-02-15T01:51:44.796Z,3.00
2023-02-15T01:54:25.419Z,3.00
2023-02-15T01:56:54.561Z,3.00
2023-02-15T01:59:25.584Z,3.00
2023-02-15T02:01:56.959Z,3.00
2023-02-15T02:04:34.073Z,2.90
2023-02-15T02:07:02.378Z,2.90
2023-02-15T02:09:31.126Z,2.90
2023-02-15T02:11:59.132Z,2.90
2023-02-15T02:14:27.846Z,2.90
2023-02-15T02:17:05.947Z,2.90
2023-02-15T02:23:26.864Z,2.90
2023-02-15T02:26:20.766Z,2.90
2023-02-15T02:29:27.545Z,2.90
2023-02-15T02:32:47.324Z,2.90
2023-02-15T02:35:21.673Z,2.90
2023-02-15T02:37:58.545Z,2.90
2023-02-15T02:40:34.524Z,2.90
2023-02-15T02:43:07.764Z,2.90
2023-02-15T02:45:42.119Z,2.90
2023-02-15T02:48:16.107Z,2.90
2023-02-15T02:50:44.291Z,2.90
2023-02-15T02:53:12.958Z,2.90
2023-02-15T02:55:44.526Z,2.90
2023-02-15T02:58:17.150Z,2.80
2023-02-15T03:00:48.339Z,2.80
2023-02-15T03:03:24.148Z,2.80
2023-02-15T03:05:55.747Z,2.80
2023-02-15T03:08:28.963Z,2.80
2023-02-15T03:10:59.580Z,2.80
2023-02-15T03:13:28.662Z,2.80
2023-02-15T03:16:16.217Z,2.80
2023-02-15T03:18:53.623Z,2.80
2023-02-15T03:21:23.921Z,2.80
2023-02-15T03:23:56.416Z,2.80
2023-02-15T03:26:26.926Z,2.80
2023-02-15T03:28:58.057Z,2.80
2023-02-15T03:31:30.718Z,2.80
2023-02-15T03:34:02.624Z,2.70
2023-02-15T03:36:38.983Z,2.70
2023-02-15T03:39:12.619Z,2.70
2023-02-15T03:41:48.357Z,2.70
2023-02-15T03:44:20.932Z,2.70
2023-02-15T03:46:54.971Z,2.70
2023-02-15T03:49:27.372Z,2.70
2023-02-15T03:51:58.439Z,2.70
2023-02-15T03:54:47.531Z,2.70
2023-02-15T03:57:36.808Z,2.60
2023-02-15T04:00:25.952Z,2.70
2023-02-15T04:03:09.027Z,2.60
2023-02-15T04:05:38.625Z,2.60
2023-02-15T04:08:06.771Z,2.60
2023-02-15T04:10:52.127Z,2.60
2023-02-15T04:13:20.498Z,2.60
2023-02-15T04:16:06.639Z,2.60
2023-02-15T04:18:54.327Z,2.50
2023-02-15T04:21:43.134Z,2.50
2023-02-15T04:24:28.968Z,2.50
2023-02-15T04:26:57.643Z,2.50
2023-02-15T04:29:27.100Z,2.50
2023-02-15T04:31:58.808Z,2.50
2023-02-15T04:34:27.210Z,2.50
2023-02-15T04:36:56.725Z,2.50
2023-02-15T04:39:24.945Z,2.40
2023-02-15T04:41:52.802Z,2.40
2023-02-15T04:44:20.850Z,2.40
2023-02-15T04:46:48.683Z,2.40
2023-02-15T04:49:16.786Z,2.40
2023-02-15T04:51:44.832Z,2.40
2023-02-15T04:54:14.515Z,2.40
2023-02-15T04:56:43.279Z,2.40
2023-02-15T04:59:12.552Z,2.40
2023-02-15T05:01:40.420Z,2.40
2023-02-15T05:04:08.544Z,2.40
2023-02-15T05:06:36.947Z,2.40
2023-02-15T05:09:05.149Z,2.30
2023-02-15T05:11:34.694Z,2.30
2023-02-15T05:14:02.574Z,2.30
2023-02-15T05:16:30.531Z,2.30
2023-02-15T05:18:58.442Z,2.30
2023-02-15T05:21:26.459Z,2.30
2023-02-15T05:23:54.774Z,2.30
2023-02-15T05:26:38.155Z,2.30
2023-02-15T05:29:08.211Z,2.30
2023-02-15T05:31:37.056Z,2.30
2023-02-15T05:34:05.246Z,2.20
2023-02-15T05:36:33.357Z,2.30
2023-02-15T05:39:01.272Z,2.20
2023-02-15T05:41:29.442Z,2.20
2023-02-15T05:43:57.764Z,2.20
2023-02-15T05:46:27.272Z,2.20
2023-02-15T05:48:55.268Z,2.20
2023-02-15T05:51:23.168Z,2.20
2023-02-15T05:53:51.133Z,2.20
2023-02-15T05:56:19.230Z,2.20
2023-02-15T05:58:47.361Z,2.20
2023-02-15T06:01:18.459Z,2.10
2023-02-15T06:03:48.480Z,2.10
2023-02-15T06:06:16.683Z,2.10
2023-02-15T06:08:45.125Z,2.10
2023-02-15T06:11:13.164Z,2.10
2023-02-15T06:13:41.325Z,2.10
2023-02-15T06:16:10.515Z,2.10
2023-02-15T06:18:38.592Z,2.10
2023-02-15T06:21:08.130Z,2.10
2023-02-15T06:23:36.073Z,2.10
2023-02-15T06:26:04.676Z,2.10
2023-02-15T06:28:32.926Z,2.00
2023-02-15T06:31:01.333Z,2.00
2023-02-15T06:33:31.353Z,2.00
2023-02-15T06:35:59.596Z,2.00
2023-02-15T06:38:29.597Z,2.00
2023-02-15T06:40:57.657Z,2.00
2023-02-15T06:43:26.350Z,2.00
2023-02-15T06:45:54.757Z,2.00
2023-02-15T06:48:22.820Z,2.00
2023-02-15T06:50:51.638Z,1.90
2023-02-15T06:53:19.780Z,1.90
2023-02-15T06:55:49.612Z,1.90
2023-02-15T06:58:17.755Z,1.90
2023-02-15T07:00:45.824Z,1.90
2023-02-15T07:03:15.785Z,1.90
2023-02-15T07:05:44.701Z,1.90
2023-02-15T07:08:12.951Z,1.90
2023-02-15T07:10:41.757Z,1.90
2023-02-15T07:13:10.292Z,1.90
2023-02-15T07:15:38.368Z,1.80
2023-02-15T07:18:07.237Z,1.80
2023-02-15T07:20:37.535Z,1.90
2023-02-15T07:23:06.736Z,1.80
2023-02-15T07:25:35.081Z,1.80
2023-02-15T07:28:05.621Z,1.80
2023-02-15T07:30:36.742Z,1.80
2023-02-15T07:33:22.366Z,1.80
2023-02-15T07:35:50.994Z,1.80
2023-02-15T07:38:19.237Z,1.80
2023-02-15T07:40:47.944Z,1.80
2023-02-15T07:43:16.414Z,1.80
2023-02-15T07:45:46.398Z,1.80
2023-02-15T07:48:14.336Z,1.80
2023-02-15T07:50:42.528Z,1.70
2023-02-15T07:53:10.698Z,1.80
2023-02-15T07:55:38.834Z,1.80
2023-02-15T07:58:07.041Z,1.80
2023-02-15T08:00:55.320Z,1.70
2023-02-15T08:03:27.922Z,1.70
2023-02-15T08:05:59.779Z,1.80
2023-02-15T08:08:31.838Z,1.80
2023-02-15T08:11:18.341Z,1.70
2023-02-15T08:13:55.844Z,1.80
2023-02-15T08:16:28.880Z,1.70
2023-02-15T08:18:58.895Z,1.70
2023-02-15T08:21:29.153Z,1.70
2023-02-15T08:23:58.122Z,1.70
2023-02-15T08:26:27.904Z,1.70
2023-02-15T08:28:56.157Z,1.70
2023-02-15T08:31:24.410Z,1.70
2023-02-15T08:33:54.310Z,1.70
2023-02-15T08:36:26.121Z,1.70
2023-02-15T08:38:54.135Z,1.70
2023-02-15T08:41:23.968Z,1.80
2023-02-15T08:43:54.642Z,1.70
2023-02-15T08:46:24.253Z,1.70
2023-02-15T08:48:52.618Z,1.70
2023-02-15T08:51:23.957Z,1.80
2023-02-15T08:53:53.468Z,1.80
2023-02-15T08:56:23.490Z,1.80
2023-02-15T08:58:51.962Z,1.80
2023-02-15T09:01:22.494Z,1.80
2023-02-15T09:03:53.791Z,1.90
2023-02-15T09:06:23.909Z,1.90
2023-02-15T09:08:52.516Z,1.90
2023-02-15T09:11:24.824Z,1.90
2023-02-15T09:13:55.950Z,1.90
2023-02-15T09:16:25.204Z,1.90
2023-02-15T09:18:53.824Z,2.00
2023-02-15T09:21:25.087Z,2.00
2023-02-15T09:23:57.176Z,2.00
2023-02-15T09:26:26.545Z,2.00
2023-02-15T09:28:57.727Z,2.00
2023-02-15T09:31:28.062Z,2.00
2023-02-15T09:33:57.194Z,2.00
2023-02-15T09:36:29.884Z,2.00
2023-02-15T09:39:00.275Z,2.00
2023-02-15T09:42:03.046Z,2.00
2023-02-15T09:44:42.269Z,2.10
2023-02-15T09:47:31.575Z,2.10
2023-02-15T09:50:08.054Z,2.10
2023-02-15T09:52:53.121Z,2.10
2023-02-15T09:55:40.583Z,2.10
2023-02-15T09:58:19.633Z,2.10
2023-02-15T10:00:53.530Z,2.10
2023-02-15T10:03:33.569Z,2.10
2023-02-15T10:06:16.562Z,2.10
2023-02-15T10:09:03.969Z,2.10
2023-02-15T10:11:48.029Z,2.10
2023-02-15T10:14:38.934Z,2.10
2023-02-15T10:17:18.698Z,2.20
2023-02-15T10:19:55.994Z,2.20
2023-02-15T10:22:33.789Z,2.10
2023-02-15T10:25:26.509Z,2.20
2023-02-15T10:27:54.837Z,2.20
2023-02-15T10:30:32.714Z,2.20
2023-02-15T10:33:02.958Z,2.20
2023-02-15T10:35:40.779Z,2.30
2023-02-15T10:38:20.455Z,2.30
2023-02-15T10:41:07.209Z,2.30
2023-02-15T10:43:58.461Z,2.30
2023-02-15T10:46:55.238Z,2.40
2023-02-15T10:49:43.881Z,2.40
2023-02-15T10:52:28.899Z,2.40
2023-02-15T10:55:05.413Z,2.40
2023-02-15T10:57:43.653Z,2.40
2023-02-15T11:00:21.017Z,2.40
2023-02-15T11:03:07.976Z,2.50
2023-02-15T11:05:43.652Z,2.50
2023-02-15T11:08:13.792Z,2.50
2023-02-15T11:10:46.575Z,2.50
2023-02-15T11:13:18.887Z,2.60
2023-02-15T11:15:51.829Z,2.60
2023-02-15T11:18:27.506Z,2.60
2023-02-15T11:20:59.792Z,2.60
2023-02-15T11:23:29.649Z,2.60
2023-02-15T11:26:00.591Z,2.70
2023-02-15T11:28:35.296Z,2.70
2023-02-15T11:31:14.849Z,2.70
2023-02-15T11:33:46.345Z,2.70
2023-02-15T11:36:19.158Z,2.70
2023-02-15T11:38:49.913Z,2.70
2023-02-15T11:41:22.007Z,2.80
2023-02-15T11:43:56.420Z,2.80
2023-02-15T11:46:24.670Z,2.80
2023-02-15T11:48:52.740Z,2.80
2023-02-15T11:51:24.486Z,2.90
2023-02-15T11:53:53.618Z,2.90
2023-02-15T11:56:24.522Z,2.90
2023-02-15T11:58:59.048Z,2.90
2023-02-15T12:01:32.822Z,2.90
2023-02-15T12:04:05.110Z,3.00
2023-02-15T12:06:36.197Z,3.00
2023-02-15T12:09:13.289Z,3.00
2023-02-15T12:11:43.132Z,3.00
2023-02-15T12:14:16.629Z,3.10
2023-02-15T12:16:46.969Z,3.10
2023-02-15T12:19:31.041Z,3.10
2023-02-15T12:21:59.976Z,3.10
2023-02-15T12:24:31.607Z,3.20
2023-02-15T12:27:04.652Z,3.20
2023-02-15T12:29:44.075Z,3.20
2023-02-15T12:32:19.064Z,3.20
2023-02-15T12:34:48.403Z,3.20
2023-02-15T12:37:23.360Z,3.30
2023-02-15T12:39:55.842Z,3.30
2023-02-15T12:42:24.986Z,3.30
2023-02-15T12:45:22.308Z,3.40
2023-02-15T12:48:11.166Z,3.40
2023-02-15T12:50:39.387Z,3.40
2023-02-15T12:53:16.886Z,3.40
2023-02-15T12:55:56.489Z,3.40
2023-02-15T12:58:27.114Z,3.50
2023-02-15T13:01:13.643Z,3.50
2023-02-15T13:03:58.344Z,3.50
2023-02-15T13:06:27.453Z,3.50
2023-02-15T13:08:57.855Z,3.60
2023-02-15T13:11:31.146Z,3.60
2023-02-15T13:14:02.123Z,3.60
2023-02-15T13:16:33.929Z,3.60
2023-02-15T13:19:08.234Z,3.60
2023-02-15T13:21:40.700Z,3.70
2023-02-15T13:24:17.222Z,3.70
2023-02-15T13:26:46.553Z,3.70
2023-02-15T13:29:20.394Z,3.70
2023-02-15T13:31:51.548Z,3.80
2023-02-15T13:34:24.545Z,3.80
2023-02-15T13:36:59.985Z,3.80
2023-02-15T13:39:33.723Z,3.80
2023-02-15T13:42:08.043Z,3.90
2023-02-15T13:44:57.807Z,3.90
2023-02-15T13:47:34.068Z,3.90
2023-02-15T13:50:24.798Z,3.90
2023-02-15T13:53:00.184Z,3.90
2023-02-15T13:55:38.570Z,3.90
2023-02-15T13:58:22.284Z,4.00
2023-02-15T14:01:01.041Z,4.00
2023-02-15T14:03:59.352Z,4.00
2023-02-15T14:06:46.986Z,4.00
2023-02-15T14:09:26.077Z,4.10
2023-02-15T14:12:07.029Z,4.10
2023-02-15T14:14:51.170Z,4.10
2023-02-15T14:17:25.289Z,4.10
2023-02-15T14:19:58.420Z,4.10
2023-02-15T14:22:34.800Z,4.10
2023-02-15T14:25:18.076Z,4.20
2023-02-15T14:28:03.567Z,4.20
2023-02-15T14:30:35.588Z,4.20
2023-02-15T14:33:08.188Z,4.30
2023-02-15T14:35:39.403Z,4.30
2023-02-15T14:38:29.127Z,4.30
2023-02-15T14:41:05.137Z,4.30
2023-02-15T14:43:45.755Z,4.30
2023-02-15T14:46:24.141Z,4.30
2023-02-15T14:48:54.460Z,4.30
2023-02-15T14:51:59.964Z,4.40
2023-02-15T14:55:11.067Z,4.40
2023-02-15T14:57:39.738Z,4.40
2023-02-15T15:00:40.285Z,4.40
2023-02-15T15:03:23.640Z,4.50
2023-02-15T15:05:54.839Z,4.50
2023-02-15T15:08:31.619Z,4.50
2023-02-15T15:11:44.009Z,4.50
2023-02-15T15:14:33.943Z,4.50
2023-02-15T15:17:03.393Z,4.50
2023-02-15T15:20:00.409Z,4.50
2023-02-15T15:22:30.498Z,4.60
2023-02-15T15:24:59.540Z,4.60
2023-02-15T15:27:51.799Z,4.60
2023-02-15T15:30:52.430Z,4.60
2023-02-15T15:33:47.809Z,4.60
2023-02-15T15:36:42.619Z,4.60
2023-02-15T15:39:38.580Z,4.60
2023-02-15T15:42:14.805Z,4.60
2023-02-15T15:45:25.442Z,4.70
2023-02-15T15:48:09.244Z,4.70
2023-02-15T15:50:41.031Z,4.70
2023-02-15T15:53:18.804Z,4.70
2023-02-15T15:55:49.363Z,4.70
2023-02-15T15:58:20.498Z,4.70
2023-02-15T16:00:53.613Z,4.70
2023-02-15T16:03:24.387Z,4.70
2023-02-15T16:05:56.124Z,4.70
2023-02-15T16:08:35.799Z,4.80
2023-02-15T16:11:12.631Z,4.80
2023-02-15T16:13:42.300Z,4.80
2023-02-15T16:16:14.517Z,4.80
2023-02-15T16:18:43.428Z,4.80
2023-02-15T16:21:19.446Z,4.80
2023-02-15T16:24:00.210Z,4.80
2023-02-15T16:26:47.563Z,4.80
2023-02-15T16:29:18.015Z,4.80
2023-02-15T16:32:06.680Z,4.80
2023-02-15T16:34:35.079Z,4.80
2023-02-15T16:37:23.047Z,4.80
2023-02-15T16:39:51.965Z,4.80
2023-02-15T16:42:20.514Z,4.80
2023-02-15T16:44:52.076Z,4.80
2023-02-15T16:47:24.983Z,4.80
2023-02-15T16:49:57.373Z,4.80
2023-02-15T16:52:27.488Z,4.80
2023-02-15T16:54:59.276Z,4.70
2023-02-15T16:57:30.265Z,4.70
2023-02-15T17:00:02.980Z,4.70
2023-02-15T17:02:55.550Z,4.70
2023-02-15T17:05:23.291Z,4.80
2023-02-15T17:07:54.189Z,4.80
2023-02-15T17:10:32.174Z,4.80
2023-02-15T17:13:05.530Z,4.80
2023-02-15T17:15:35.989Z,4.70
2023-02-15T17:18:11.380Z,4.70
2023-02-15T17:20:42.906Z,4.70
2023-02-15T17:23:23.673Z,4.70
2023-02-15T17:25:53.816Z,4.60
2023-02-15T17:28:25.297Z,4.60
2023-02-15T17:30:56.096Z,4.60
2023-02-15T17:33:34.633Z,4.60
2023-02-15T17:36:09.768Z,4.60
2023-02-15T17:38:39.004Z,4.60
2023-02-15T17:41:07.388Z,4.50
2023-02-15T17:43:35.433Z,4.50
2023-02-15T17:46:03.482Z,4.50
2023-02-15T17:48:35.546Z,4.50
2023-02-15T17:51:05.479Z,4.50
2023-02-15T17:53:34.439Z,4.50
2023-02-15T17:56:10.305Z,4.50
2023-02-15T17:58:39.345Z,4.40
2023-02-15T18:01:31.230Z,4.40
2023-02-15T18:04:18.199Z,4.40
2023-02-15T18:07:03.953Z,4.40
2023-02-15T18:09:49.538Z,4.40
2023-02-15T18:12:22.294Z,4.40
2023-02-15T18:14:50.552Z,4.30
2023-02-15T18:17:19.513Z,4.40
2023-02-15T18:19:49.480Z,4.30
2023-02-15T18:22:19.727Z,4.30
2023-02-15T18:24:48.961Z,4.30
2023-02-15T18:27:21.264Z,4.30
2023-02-15T18:29:49.840Z,4.30
2023-02-15T18:32:20.486Z,4.30
2023-02-15T18:34:50.732Z,4.30
2023-02-15T18:37:21.933Z,4.30
2023-02-15T18:39:54.143Z,4.20
2023-02-15T18:42:23.983Z,4.20
2023-02-15T18:44:56.652Z,4.20
2023-02-15T18:47:24.973Z,4.20
2023-02-15T18:49:54.914Z,4.20
2023-02-15T18:52:24.567Z,4.20
2023-02-15T18:54:54.528Z,4.20
2023-02-15T18:57:22.996Z,4.20
2023-02-15T18:59:50.816Z,4.10
2023-02-15T19:02:20.173Z,4.10
2023-02-15T19:04:48.473Z,4.10
2023-02-15T19:07:22.826Z,4.10
2023-02-15T19:09:53.510Z,4.10
2023-02-15T19:12:21.763Z,4.10
2023-02-15T19:14:51.902Z,4.10
2023-02-15T19:17:22.391Z,4.10
2023-02-15T19:19:51.117Z,4.00
2023-02-15T19:22:26.053Z,4.00
2023-02-15T19:24:55.854Z,4.00
2023-02-15T19:27:27.285Z,4.00
2023-02-15T19:29:56.143Z,4.00
2023-02-15T19:32:24.419Z,4.00
2023-02-15T19:34:52.355Z,3.90
2023-02-15T19:37:26.551Z,3.90
2023-02-15T19:39:56.105Z,3.90
2023-02-15T19:42:25.552Z,3.90
2023-02-15T19:44:54.552Z,3.90
2023-02-15T19:47:23.050Z,3.90
2023-02-15T19:49:50.949Z,3.90
2023-02-15T19:52:20.898Z,3.90
2023-02-15T19:54:51.122Z,3.80
2023-02-15T19:57:19.534Z,3.80
2023-02-15T19:59:48.677Z,3.80
2023-02-15T20:02:20.141Z,3.80
2023-02-15T20:04:48.186Z,3.80
2023-02-15T20:07:23.443Z,3.80
2023-02-15T20:09:53.278Z,3.80
2023-02-15T20:12:23.298Z,3.80
2023-02-15T20:14:51.704Z,3.80
2023-02-15T20:17:19.750Z,3.80
2023-02-15T20:19:48.212Z,3.70
2023-02-15T20:22:23.337Z,3.70
2023-02-15T20:24:55.409Z,3.70
2023-02-15T20:27:24.251Z,3.70
2023-02-15T20:29:55.753Z,3.70
2023-02-15T20:32:23.893Z,3.70
2023-02-15T20:34:51.866Z,3.60
2023-02-15T20:37:23.974Z,3.70
2023-02-15T20:39:53.335Z,3.60
2023-02-15T20:42:21.612Z,3.60
2023-02-15T20:44:49.436Z,3.60
2023-02-15T20:47:17.331Z,3.60
2023-02-15T20:49:45.575Z,3.60
2023-02-15T20:52:20.086Z,3.60
2023-02-15T20:54:48.043Z,3.60
2023-02-15T20:57:17.529Z,3.60
2023-02-15T20:59:45.929Z,3.60
2023-02-15T21:02:18.935Z,3.60
2023-02-15T21:04:47.349Z,3.50
2023-02-15T21:07:17.220Z,3.60
2023-02-15T21:09:45.305Z,3.50
2023-02-15T21:12:15.689Z,3.50
2023-02-15T21:14:46.098Z,3.50
2023-02-15T21:17:15.008Z,3.50
2023-02-15T21:19:43.031Z,3.50
2023-02-15T21:22:13.118Z,3.50
2023-02-15T21:24:50.619Z,3.40
2023-02-15T21:27:19.191Z,3.40
2023-02-15T21:29:48.531Z,3.40
2023-02-15T21:32:16.747Z,3.50
2023-02-15T21:34:44.700Z,3.40
2023-02-15T21:37:28.752Z,3.40
2023-02-15T21:39:56.907Z,3.40
2023-02-15T21:42:42.512Z,3.40
2023-02-15T21:45:34.952Z,3.40
2023-02-15T21:48:03.333Z,3.40
2023-02-15T21:50:49.029Z,3.40
2023-02-15T21:53:22.208Z,3.40
2023-02-15T21:55:50.542Z,3.30
2023-02-15T21:58:21.442Z,3.30
2023-02-15T22:00:54.630Z,3.30
2023-02-15T22:03:23.533Z,3.30
2023-02-15T22:05:51.622Z,3.30
2023-02-15T22:08:19.883Z,3.30
2023-02-15T22:10:48.965Z,3.30
2023-02-15T22:13:19.818Z,3.30
2023-02-15T22:15:48.308Z,3.30
2023-02-15T22:18:24.310Z,3.20
2023-02-15T22:20:52.978Z,3.20
2023-02-15T22:23:21.540Z,3.20
2023-02-15T22:25:55.653Z,3.20
2023-02-15T22:28:29.330Z,3.20
2023-02-15T22:30:57.307Z,3.20
2023-02-15T22:33:30.003Z,3.20
2023-02-15T22:35:58.529Z,3.20
2023-02-15T22:38:27.290Z,3.10
2023-02-15T22:40:58.243Z,3.10
2023-02-15T22:43:35.761Z,3.10
2023-02-15T22:46:05.544Z,3.10
2023-02-15T22:48:35.314Z,3.10
2023-02-15T22:51:03.641Z,3.10
2023-02-15T22:53:31.887Z,3.10
2023-02-15T22:56:06.142Z,3.10
2023-02-15T22:58:34.800Z,3.10
2023-02-15T23:01:03.640Z,3.10
2023-02-15T23:03:33.307Z,3.00
2023-02-15T23:06:04.676Z,3.00
2023-02-15T23:08:32.700Z,3.00
2023-02-15T23:11:00.573Z,3.00
2023-02-15T23:13:32.625Z,3.00
2023-02-15T23:16:02.923Z,3.00
2023-02-15T23:18:34.010Z,3.00
2023-02-15T23:21:07.533Z,3.00
2023-02-15T23:23:38.478Z,3.00
2023-02-15T23:26:16.460Z,3.00
2023-02-15T23:28:45.170Z,3.00
2023-02-15T23:31:18.555Z,2.90
2023-02-15T23:33:47.071Z,3.00
2023-02-15T23:36:31.220Z,3.00
2023-02-15T23:39:21.628Z,3.00
2023-02-15T23:41:48.803Z,3.00
2023-02-15T23:44:16.868Z,2.90
2023-02-15T23:46:47.596Z,2.90
2023-02-15T23:49:17.516Z,2.90
2023-02-15T23:51:48.755Z,2.90
2023-02-15T23:54:18.710Z,2.90
2023-02-15T23:56:49.114Z,2.90
2023-02-15T23:59:19.113Z,2.90
